Aviation Digital Data Service (ADDS)

Output produced by TAFs form (1258 UTC 14 December 2017)
found at http://aviationweather.gov/adds/tafs/
 
METAR text: KFFZ 141250Z 03009KT 40SM SKC 08/M12 A2993
Conditions at: KFFZ (MESA/FALCON FLD , AZ, US) observed 1250 UTC 14 December 2017
Temperature: 8.0°C (46°F)
Dewpoint: -12.0°C (10°F) [RH = 23%]
Pressure (altimeter): 29.93 inches Hg (1013.6 mb)
Winds: from the NNE (30 degrees) at 10 MPH (9 knots; 4.7 m/s)
Visibility: 40 miles (64 km)
Ceiling: at least 12,000 feet AGL
Clouds: clear skies
Weather: no significant weather observed at this time

METAR text: KIWA 141247Z 11007KT 20SM SKC 05/M13 A2993
Conditions at: KIWA (CHANDLER/MESA , AZ, US) observed 1247 UTC 14 December 2017
Temperature: 5.0°C (41°F)
Dewpoint: -13.0°C (9°F) [RH = 26%]
Pressure (altimeter): 29.93 inches Hg (1013.6 mb)
Winds: from the ESE (110 degrees) at 8 MPH (7 knots; 3.6 m/s)
Visibility: 20 miles (32 km)
Ceiling: at least 12,000 feet AGL
Clouds: clear skies
Weather: no significant weather observed at this time

Forecast for: KIWA (CHANDLER/MESA , AZ, US)
Text: KIWA 141122Z 1412/1512 12008KT P6SM FEW250
Forecast period: 1200 to 2000 UTC 14 December 2017
Forecast type: FROM: standard forecast or significant change
Winds: from the ESE (120 degrees) at 9 MPH (8 knots; 4.2 m/s)
Visibility: 6 or more miles (10+ km)
Clouds: few clouds at 25000 feet AGL
Weather: no significant weather forecast for this period
Text: FM142000 35011KT P6SM SKC
Forecast period: 2000 UTC 14 December 2017 to 0500 UTC 15 December 2017
Forecast type: FROM: standard forecast or significant change
Winds: from the N (350 degrees) at 13 MPH (11 knots; 5.7 m/s)
Visibility: 6 or more miles (10+ km)
Clouds: clear skies
Weather: no significant weather forecast for this period
Text: FM150500 04006KT P6SM SKC AMD LTD TO CLD VIS AND WIND TIL 141300
Forecast period: 0500 to 1200 UTC 15 December 2017
Forecast type: FROM: standard forecast or significant change
Winds: from the NE (40 degrees) at 7 MPH (6 knots; 3.1 m/s)
Visibility: 6 or more miles (10+ km)
Clouds: clear skies
Weather: no significant weather forecast for this period